Time;durP1;ratioP1;P1;durP2;ratioP2;P2;SDS_P1;SDS_P2;PMS_P1;PMS_P2;Temp;Humidity;BMP_temperature;BMP_pressure;BME280_temperature;BME280_humidity;BME280_pressure;Samples;Min_cycle;Max_cycle;Signal;HPM_P1;HPM_P2
2022/12/26 00:01:27;;;;;;;3.60;1.80;;;;;;;;;;5036621;28;20186;-82
2022/12/26 00:03:54;;;;;;;4.90;1.73;;;;;;;;;;5053476;28;20412;-84
2022/12/26 00:06:21;;;;;;;2.03;1.50;;;;;;;;;;5053800;28;20180;-81
2022/12/26 00:08:48;;;;;;;2.15;1.95;;;;;;;;;;5052562;28;20578;-82
2022/12/26 00:11:14;;;;;;;2.67;1.60;;;;;;;;;;5036826;28;20209;-82
2022/12/26 00:13:40;;;;;;;1.65;1.40;;;;;;;;;;5054800;28;20175;-82
2022/12/26 00:16:07;;;;;;;3.58;1.90;;;;;;;;;;5054700;28;20181;-82
2022/12/26 00:18:33;;;;;;;3.00;1.80;;;;;;;;;;5055031;28;20173;-83
2022/12/26 00:20:59;;;;;;;2.60;2.40;;;;;;;;;;5054397;28;20178;-84
2022/12/26 00:23:25;;;;;;;4.25;1.80;;;;;;;;;;5054782;28;20491;-82
2022/12/26 00:25:51;;;;;;;2.50;2.00;;;;;;;;;;5055036;28;20253;-82
2022/12/26 00:28:17;;;;;;;2.75;1.67;;;;;;;;;;5054480;28;20728;-82
2022/12/26 00:30:43;;;;;;;5.20;1.97;;;;;;;;;;5053182;28;20593;-82
2022/12/26 00:33:09;;;;;;;6.40;2.80;;;;;;;;;;5052973;28;20430;-83
2022/12/26 00:35:35;;;;;;;3.77;1.70;;;;;;;;;;5036488;28;20443;-83
2022/12/26 00:38:01;;;;;;;3.10;2.10;;;;;;;;;;5054489;28;20408;-82
2022/12/26 00:40:27;;;;;;;5.32;2.13;;;;;;;;;;5053265;28;20545;-82
2022/12/26 00:42:54;;;;;;;3.78;2.00;;;;;;;;;;5036736;28;20181;-82
2022/12/26 00:45:20;;;;;;;6.57;1.60;;;;;;;;;;5054364;28;20178;-82
2022/12/26 00:47:46;;;;;;;4.18;2.20;;;;;;;;;;5053300;28;20185;-82
2022/12/26 00:50:12;;;;;;;2.50;2.00;;;;;;;;;;5054554;28;20551;-83
2022/12/26 00:52:38;;;;;;;3.50;1.60;;;;;;;;;;5053657;28;20189;-82
2022/12/26 00:55:04;;;;;;;3.30;2.17;;;;;;;;;;5036797;28;20420;-82
2022/12/26 00:57:30;;;;;;;4.60;2.10;;;;;;;;;;5052832;28;20170;-82
2022/12/26 00:59:56;;;;;;;5.37;2.43;;;;;;;;;;5053257;28;20420;-84
2022/12/26 01:02:37;;;;;;;6.97;2.33;;;;;;;;;;5054168;28;20415;-82
2022/12/26 01:05:04;;;;;;;2.60;1.57;;;;;;;;;;5054134;28;20432;-82
2022/12/26 01:07:33;;;;;;;3.50;2.00;;;;;;;;;;5053402;28;20396;-82
2022/12/26 01:10:00;;;;;;;2.58;1.70;;;;;;;;;;5052682;28;20847;-82
2022/12/26 01:12:26;;;;;;;3.55;1.85;;;;;;;;;;5053958;28;20204;-81
2022/12/26 01:14:54;;;;;;;2.90;1.90;;;;;;;;;;5054523;28;20170;-82
2022/12/26 01:17:20;;;;;;;5.95;2.30;;;;;;;;;;5054036;28;20223;-82
2022/12/26 01:19:46;;;;;;;2.67;1.75;;;;;;;;;;5053977;28;20190;-82
2022/12/26 01:22:12;;;;;;;2.03;1.83;;;;;;;;;;5056517;28;20177;-82
2022/12/26 01:24:38;;;;;;;2.60;2.40;;;;;;;;;;5039971;28;20193;-82
2022/12/26 01:27:04;;;;;;;3.10;1.67;;;;;;;;;;5039715;28;20182;-82
2022/12/26 01:29:31;;;;;;;5.40;2.08;;;;;;;;;;5056582;28;20412;-82
2022/12/26 01:31:57;;;;;;;5.63;2.08;;;;;;;;;;5056229;28;20205;-82
2022/12/26 01:34:23;;;;;;;5.07;1.73;;;;;;;;;;5056440;28;20213;-82
2022/12/26 01:36:49;;;;;;;3.67;1.75;;;;;;;;;;5056730;28;20849;-82
2022/12/26 01:39:15;;;;;;;4.93;2.43;;;;;;;;;;5056336;28;20239;-83
2022/12/26 01:41:41;;;;;;;4.50;1.90;;;;;;;;;;5056155;28;20416;-82
2022/12/26 01:44:27;;;;;;;5.30;1.60;;;;;;;;;;5055942;28;20186;-82
2022/12/26 01:46:53;;;;;;;4.90;1.80;;;;;;;;;;5057518;28;20411;-82
2022/12/26 01:49:25;;;;;;;3.03;2.20;;;;;;;;;;5056162;28;21263;-82
2022/12/26 01:51:54;;;;;;;3.30;1.40;;;;;;;;;;5057097;28;20446;-82
2022/12/26 01:54:21;;;;;;;2.85;1.70;;;;;;;;;;5055698;28;20430;-82
2022/12/26 01:56:48;;;;;;;3.00;1.75;;;;;;;;;;5055702;28;20232;-82
2022/12/26 01:59:18;;;;;;;7.20;1.98;;;;;;;;;;5055785;28;20180;-82
2022/12/26 02:01:46;;;;;;;3.50;1.70;;;;;;;;;;5057030;28;20181;-82
2022/12/26 02:07:00;;;;;;;3.70;1.57;;;;;;;;;;5057093;28;20168;-82
2022/12/26 02:09:26;;;;;;;3.10;1.57;;;;;;;;;;5039427;28;20475;-82
2022/12/26 02:11:56;;;;;;;2.07;1.30;;;;;;;;;;5038866;28;20513;-82
2022/12/26 02:14:22;;;;;;;4.53;1.70;;;;;;;;;;5056599;28;20404;-82
2022/12/26 02:16:48;;;;;;;2.30;1.52;;;;;;;;;;5057315;28;20466;-82
2022/12/26 02:19:33;;;;;;;4.90;1.90;;;;;;;;;;5055233;28;20664;-82
2022/12/26 02:21:59;;;;;;;2.25;1.40;;;;;;;;;;5056738;28;20431;-82
2022/12/26 02:24:40;;;;;;;2.30;1.73;;;;;;;;;;5056714;28;20177;-82
2022/12/26 02:27:14;;;;;;;8.90;2.33;;;;;;;;;;5056854;28;20495;-82
2022/12/26 02:29:56;;;;;;;2.70;1.60;;;;;;;;;;5056808;28;20166;-82
2022/12/26 02:32:40;;;;;;;2.37;1.67;;;;;;;;;;5055663;28;20486;-83
2022/12/26 02:35:12;;;;;;;1.40;1.30;;;;;;;;;;5056025;28;20430;-82
2022/12/26 02:37:57;;;;;;;2.33;1.60;;;;;;;;;;5056407;28;20166;-82
2022/12/26 02:40:38;;;;;;;2.40;1.85;;;;;;;;;;5055192;28;20185;-82
2022/12/26 02:43:16;;;;;;;2.50;1.60;;;;;;;;;;5056191;28;20161;-82
2022/12/26 02:49:03;;;;;;;4.65;2.00;;;;;;;;;;5056176;28;20570;-81
2022/12/26 03:13:09;;;;;;;3.83;1.63;;;;;;;;;;5056203;28;20204;-81
2022/12/26 03:14:25;;;;;;;2.58;1.70;;;;;;;;;;5055805;28;20223;-81
2022/12/26 03:19:56;;;;;;;4.50;1.70;;;;;;;;;;5055382;28;20347;-81
2022/12/26 03:22:32;;;;;;;3.72;1.80;;;;;;;;;;5055859;28;20562;-82
2022/12/26 03:27:45;;;;;;;3.78;1.95;;;;;;;;;;5055619;28;20237;-82
2022/12/26 03:32:56;;;;;;;4.15;1.48;;;;;;;;;;5055698;28;20550;-82
2022/12/26 03:35:23;;;;;;;3.58;1.60;;;;;;;;;;5053847;28;20239;-82
2022/12/26 03:37:55;;;;;;;4.30;1.27;;;;;;;;;;5054308;28;20170;-82
2022/12/26 04:21:00;;;;;;;2.30;1.60;;;;;;;;;;5054403;28;20189;-82
2022/12/26 04:46:02;;;;;;;6.00;2.38;;;;;;;;;;5054370;28;20641;-82
2022/12/26 04:51:12;;;;;;;5.00;1.70;;;;;;;;;;5053146;28;20284;-81
2022/12/26 04:53:38;;;;;;;7.10;2.25;;;;;;;;;;5036827;28;20208;-82
2022/12/26 04:56:04;;;;;;;3.95;1.60;;;;;;;;;;5057913;28;20227;-82
2022/12/26 04:58:30;;;;;;;2.50;1.70;;;;;;;;;;5058272;28;20180;-82
2022/12/26 05:09:32;;;;;;;2.83;1.70;;;;;;;;;;5057179;28;20182;-82
2022/12/26 05:09:33;;;;;;;1.30;1.20;;;;;;;;;;5057284;28;20316;-85
2022/12/26 05:11:59;;;;;;;3.28;1.40;;;;;;;;;;5058504;28;20209;-82
2022/12/26 05:14:25;;;;;;;3.53;1.55;;;;;;;;;;5058469;28;20174;-82
2022/12/26 05:30:42;;;;;;;3.90;1.50;;;;;;;;;;5057551;28;20552;-84
2022/12/26 05:35:52;;;;;;;2.33;1.25;;;;;;;;;;5057557;28;20219;-83
2022/12/26 05:38:18;;;;;;;1.42;1.23;;;;;;;;;;5057004;28;20186;-85
2022/12/26 05:40:44;;;;;;;1.35;0.82;;;;;;;;;;5057361;28;20170;-85
2022/12/26 05:43:10;;;;;;;3.15;1.20;;;;;;;;;;5056091;28;20185;-84
2022/12/26 05:45:36;;;;;;;3.00;1.23;;;;;;;;;;5056939;28;20173;-84
2022/12/26 05:48:02;;;;;;;2.45;1.10;;;;;;;;;;5056334;28;20423;-84
2022/12/26 05:50:29;;;;;;;5.45;2.85;;;;;;;;;;5056794;28;20173;-84
2022/12/26 05:52:58;;;;;;;1.00;0.73;;;;;;;;;;5057193;28;20174;-84
2022/12/26 05:55:24;;;;;;;1.63;1.15;;;;;;;;;;5056758;28;20192;-84
2022/12/26 05:57:51;;;;;;;1.70;1.10;;;;;;;;;;5057140;28;20223;-84
2022/12/26 06:00:17;;;;;;;1.65;1.23;;;;;;;;;;5056533;28;20249;-83
2022/12/26 06:02:43;;;;;;;2.20;1.30;;;;;;;;;;5057220;28;20311;-83
2022/12/26 06:05:09;;;;;;;1.00;0.90;;;;;;;;;;5057194;28;20212;-83
2022/12/26 06:07:35;;;;;;;1.95;0.73;;;;;;;;;;5055334;28;20458;-82
2022/12/26 06:10:01;;;;;;;1.55;0.80;;;;;;;;;;5056830;28;20174;-83
2022/12/26 06:12:27;;;;;;;0.80;0.60;;;;;;;;;;5056858;28;20213;-84
2022/12/26 06:14:53;;;;;;;0.95;0.80;;;;;;;;;;5057026;28;20223;-83
2022/12/26 06:17:19;;;;;;;2.40;0.80;;;;;;;;;;5056763;28;20645;-83
2022/12/26 06:19:45;;;;;;;1.65;0.90;;;;;;;;;;5057207;28;20186;-83
2022/12/26 06:22:11;;;;;;;0.85;0.80;;;;;;;;;;5056952;28;20178;-83
2022/12/26 06:24:37;;;;;;;1.25;1.00;;;;;;;;;;5056710;28;20177;-83
2022/12/26 06:27:03;;;;;;;0.70;0.70;;;;;;;;;;5057512;28;20181;-83
2022/12/26 06:29:29;;;;;;;0.88;0.75;;;;;;;;;;5056511;28;20169;-82
2022/12/26 06:31:55;;;;;;;0.85;0.80;;;;;;;;;;5056672;28;20209;-82
2022/12/26 06:34:21;;;;;;;1.55;0.75;;;;;;;;;;5056110;28;20176;-83
2022/12/26 06:36:47;;;;;;;1.00;0.90;;;;;;;;;;5055363;28;20174;-82
2022/12/26 06:39:13;;;;;;;2.55;0.80;;;;;;;;;;5056566;28;20184;-83
2022/12/26 06:41:39;;;;;;;1.15;0.80;;;;;;;;;;5056459;28;20292;-83
2022/12/26 06:44:05;;;;;;;1.63;1.00;;;;;;;;;;5055087;28;20189;-83
2022/12/26 06:46:31;;;;;;;1.23;0.75;;;;;;;;;;5055128;28;20177;-83
2022/12/26 06:48:57;;;;;;;1.88;0.90;;;;;;;;;;5055205;28;20665;-83
2022/12/26 06:51:25;;;;;;;1.23;0.90;;;;;;;;;;5056140;28;20213;-83
2022/12/26 06:53:51;;;;;;;3.85;1.10;;;;;;;;;;5056646;28;20169;-82
2022/12/26 06:56:19;;;;;;;2.38;0.90;;;;;;;;;;5056322;28;20535;-82
2022/12/26 06:58:45;;;;;;;1.00;0.80;;;;;;;;;;5055186;28;20688;-83
2022/12/26 07:01:15;;;;;;;1.40;1.00;;;;;;;;;;5055830;28;20188;-82
2022/12/26 07:03:42;;;;;;;0.93;0.80;;;;;;;;;;5054524;28;20180;-82
2022/12/26 07:06:11;;;;;;;1.20;1.00;;;;;;;;;;5055903;28;20181;-83
2022/12/26 07:08:37;;;;;;;0.80;0.63;;;;;;;;;;5056101;28;20236;-82
2022/12/26 07:11:03;;;;;;;2.47;0.80;;;;;;;;;;5056454;28;20614;-82
2022/12/26 07:13:29;;;;;;;1.15;1.00;;;;;;;;;;5056084;28;20253;-83
2022/12/26 07:15:58;;;;;;;1.33;0.80;;;;;;;;;;5055158;28;20173;-82
2022/12/26 07:18:24;;;;;;;2.47;0.80;;;;;;;;;;5055387;28;20522;-82
2022/12/26 07:20:50;;;;;;;1.83;1.00;;;;;;;;;;5055690;28;20633;-82
2022/12/26 07:23:16;;;;;;;1.60;0.68;;;;;;;;;;5056220;28;20223;-83
2022/12/26 07:25:42;;;;;;;2.10;0.93;;;;;;;;;;5054379;28;20181;-83
2022/12/26 07:28:08;;;;;;;1.55;0.73;;;;;;;;;;5055888;28;20206;-83
2022/12/26 07:30:34;;;;;;;1.40;0.80;;;;;;;;;;5054279;28;20174;-83
2022/12/26 07:33:00;;;;;;;1.98;0.65;;;;;;;;;;5055721;28;20188;-82
2022/12/26 07:35:26;;;;;;;0.95;0.70;;;;;;;;;;5055400;28;20178;-82
2022/12/26 07:37:52;;;;;;;0.93;0.82;;;;;;;;;;5054411;28;20181;-83
2022/12/26 07:40:18;;;;;;;1.90;0.90;;;;;;;;;;5054694;28;20231;-82
2022/12/26 07:42:44;;;;;;;1.38;1.10;;;;;;;;;;5054175;28;20235;-82
2022/12/26 07:45:10;;;;;;;1.23;0.80;;;;;;;;;;5054250;28;20558;-83
2022/12/26 07:47:36;;;;;;;1.00;0.80;;;;;;;;;;5055353;28;20219;-83
2022/12/26 07:50:02;;;;;;;1.23;0.85;;;;;;;;;;5055242;28;20323;-82
2022/12/26 07:52:28;;;;;;;1.10;0.90;;;;;;;;;;5054405;28;20201;-83
2022/12/26 07:54:54;;;;;;;0.98;0.77;;;;;;;;;;5055066;28;20174;-83
2022/12/26 07:57:20;;;;;;;1.48;0.80;;;;;;;;;;5054660;28;20515;-83
2022/12/26 07:59:46;;;;;;;4.72;1.05;;;;;;;;;;5053315;28;20200;-82
2022/12/26 08:02:12;;;;;;;1.70;1.17;;;;;;;;;;5055565;28;20177;-82
2022/12/26 08:04:38;;;;;;;2.08;1.00;;;;;;;;;;5053406;28;20200;-83
2022/12/26 08:07:04;;;;;;;3.85;1.42;;;;;;;;;;5054779;28;20181;-82
2022/12/26 08:09:30;;;;;;;1.42;0.80;;;;;;;;;;5054336;28;20287;-83
2022/12/26 08:11:56;;;;;;;1.77;0.85;;;;;;;;;;5053478;28;20212;-82
2022/12/26 08:14:22;;;;;;;1.63;1.00;;;;;;;;;;5054457;28;20176;-84
2022/12/26 08:16:48;;;;;;;1.75;1.13;;;;;;;;;;5054677;28;20177;-83
2022/12/26 08:19:15;;;;;;;0.88;0.82;;;;;;;;;;5054665;28;20231;-83
2022/12/26 08:21:41;;;;;;;1.27;0.80;;;;;;;;;;5054034;28;20752;-83
2022/12/26 08:24:07;;;;;;;1.95;1.30;;;;;;;;;;5054622;28;20231;-83
2022/12/26 08:26:33;;;;;;;1.38;1.15;;;;;;;;;;5054289;28;20650;-83
2022/12/26 08:28:59;;;;;;;1.67;1.13;;;;;;;;;;5054191;28;20178;-82
2022/12/26 08:31:25;;;;;;;2.07;1.10;;;;;;;;;;5053213;28;20205;-83
2022/12/26 08:33:53;;;;;;;4.05;1.60;;;;;;;;;;5054977;28;20463;-82
2022/12/26 08:36:20;;;;;;;7.85;1.70;;;;;;;;;;5054283;28;20197;-82
2022/12/26 08:38:45;;;;;;;2.28;1.20;;;;;;;;;;5053061;28;20185;-82
2022/12/26 08:41:12;;;;;;;3.43;1.20;;;;;;;;;;5054735;28;20185;-82
2022/12/26 08:43:37;;;;;;;1.27;1.05;;;;;;;;;;5036350;28;20423;-82
2022/12/26 08:46:06;;;;;;;2.60;1.37;;;;;;;;;;5054351;28;20169;-83
2022/12/26 08:48:32;;;;;;;4.57;1.30;;;;;;;;;;5052957;28;20788;-82
2022/12/26 08:51:03;;;;;;;1.60;1.50;;;;;;;;;;5054018;28;20194;-83
2022/12/26 08:53:31;;;;;;;1.92;1.45;;;;;;;;;;5053857;28;20181;-83
2022/12/26 08:55:57;;;;;;;2.90;1.65;;;;;;;;;;5054197;28;20297;-83
2022/12/26 08:58:24;;;;;;;2.55;1.25;;;;;;;;;;5053364;28;20188;-82
2022/12/26 09:00:50;;;;;;;2.95;1.55;;;;;;;;;;5053229;28;20629;-83
2022/12/26 09:03:16;;;;;;;2.50;1.30;;;;;;;;;;5053460;28;20257;-83
2022/12/26 09:05:42;;;;;;;2.60;1.20;;;;;;;;;;5054386;28;20212;-83
2022/12/26 09:08:09;;;;;;;2.55;0.93;;;;;;;;;;5052606;28;20564;-83
2022/12/26 09:10:35;;;;;;;2.58;1.50;;;;;;;;;;5053051;28;20178;-83
2022/12/26 09:13:01;;;;;;;3.72;0.98;;;;;;;;;;5052930;28;20568;-82
2022/12/26 09:15:27;;;;;;;4.15;1.00;;;;;;;;;;5053138;28;20174;-86
2022/12/26 09:17:53;;;;;;;2.72;1.25;;;;;;;;;;5052852;28;20610;-82
2022/12/26 09:20:19;;;;;;;3.28;1.10;;;;;;;;;;5036306;28;20189;-82
2022/12/26 09:22:51;;;;;;;2.03;1.10;;;;;;;;;;5054088;28;20523;-83
2022/12/26 09:25:21;;;;;;;3.45;1.10;;;;;;;;;;5052601;28;20184;-82
2022/12/26 09:27:48;;;;;;;3.55;1.10;;;;;;;;;;5053178;28;20185;-82
2022/12/26 09:30:14;;;;;;;2.15;0.98;;;;;;;;;;5052381;28;20626;-82
2022/12/26 09:32:40;;;;;;;1.42;1.02;;;;;;;;;;5032327;28;20665;-83
2022/12/26 09:35:06;;;;;;;2.75;1.00;;;;;;;;;;5034262;28;20174;-82
2022/12/26 09:37:33;;;;;;;2.53;1.30;;;;;;;;;;5049073;28;20186;-82
2022/12/26 09:39:59;;;;;;;1.25;0.80;;;;;;;;;;5032837;28;20509;-82
2022/12/26 09:42:37;;;;;;;1.77;1.00;;;;;;;;;;5055865;28;20645;-82
2022/12/26 09:45:14;;;;;;;3.13;1.30;;;;;;;;;;5055941;28;20544;-82
2022/12/26 09:47:43;;;;;;;2.97;1.10;;;;;;;;;;5056364;28;20174;-82
2022/12/26 09:50:09;;;;;;;1.55;0.70;;;;;;;;;;5056347;28;20327;-82
2022/12/26 09:52:41;;;;;;;7.13;1.03;;;;;;;;;;5056210;28;20213;-82
2022/12/26 09:55:18;;;;;;;1.55;0.93;;;;;;;;;;5057362;28;20520;-82
2022/12/26 09:57:50;;;;;;;2.10;1.13;;;;;;;;;;5057692;28;20513;-82
2022/12/26 10:00:19;;;;;;;4.85;1.15;;;;;;;;;;5056301;28;20185;-81
2022/12/26 10:02:47;;;;;;;1.85;1.10;;;;;;;;;;5057275;28;20199;-82
2022/12/26 10:05:14;;;;;;;3.80;1.10;;;;;;;;;;5057127;28;20185;-82
2022/12/26 10:07:49;;;;;;;3.95;1.77;;;;;;;;;;5039342;28;20255;-83
2022/12/26 10:10:34;;;;;;;2.83;1.00;;;;;;;;;;5055797;28;20173;-82
2022/12/26 10:13:10;;;;;;;1.35;0.85;;;;;;;;;;5057085;28;20213;-82
2022/12/26 10:15:48;;;;;;;5.32;0.90;;;;;;;;;;5055758;28;20177;-83
2022/12/26 10:18:23;;;;;;;1.50;0.95;;;;;;;;;;5057012;28;20176;-83
2022/12/26 10:20:59;;;;;;;2.38;1.10;;;;;;;;;;5057584;28;20237;-83
2022/12/26 10:23:29;;;;;;;2.90;1.20;;;;;;;;;;5056882;28;20180;-82
2022/12/26 10:26:11;;;;;;;1.08;0.95;;;;;;;;;;5055586;28;20584;-82
2022/12/26 10:28:46;;;;;;;1.63;0.90;;;;;;;;;;5055443;28;20185;-83
2022/12/26 10:31:34;;;;;;;2.42;1.00;;;;;;;;;;5056956;28;20262;-82
2022/12/26 10:34:12;;;;;;;2.08;1.83;;;;;;;;;;5056993;28;20177;-82
2022/12/26 10:36:45;;;;;;;2.50;1.00;;;;;;;;;;5056526;28;20173;-82
2022/12/26 10:39:17;;;;;;;4.80;1.83;;;;;;;;;;5056598;28;20166;-82
2022/12/26 10:41:46;;;;;;;8.13;1.40;;;;;;;;;;5055021;28;20181;-82
2022/12/26 10:44:14;;;;;;;1.60;1.30;;;;;;;;;;5056055;28;20165;-82
2022/12/26 10:46:53;;;;;;;5.35;2.40;;;;;;;;;;5054922;28;20227;-82
2022/12/26 10:49:21;;;;;;;2.92;1.13;;;;;;;;;;5054563;28;20181;-82
2022/12/26 10:51:47;;;;;;;4.38;1.30;;;;;;;;;;5054521;28;20221;-79
2022/12/26 10:54:16;;;;;;;4.05;0.98;;;;;;;;;;5055351;28;20170;-82
2022/12/26 10:56:43;;;;;;;2.83;1.30;;;;;;;;;;5054897;28;20200;-81
2022/12/26 10:59:14;;;;;;;2.05;1.15;;;;;;;;;;5054997;28;20173;-82
2022/12/26 11:01:46;;;;;;;7.32;1.10;;;;;;;;;;5055135;28;20169;-81
2022/12/26 11:04:21;;;;;;;3.90;1.23;;;;;;;;;;5056339;28;20169;-82
2022/12/26 11:06:51;;;;;;;1.55;1.27;;;;;;;;;;5056245;28;20720;-82
2022/12/26 11:09:44;;;;;;;3.72;1.05;;;;;;;;;;5038445;28;20233;-82
2022/12/26 11:12:25;;;;;;;2.85;1.05;;;;;;;;;;5053814;28;20209;-81
2022/12/26 11:14:56;;;;;;;4.40;1.13;;;;;;;;;;5055906;28;20170;-82
2022/12/26 11:17:33;;;;;;;1.58;0.98;;;;;;;;;;5054184;28;20271;-82
2022/12/26 11:20:15;;;;;;;5.53;1.35;;;;;;;;;;5054036;28;20185;-82
2022/12/26 11:22:42;;;;;;;2.55;1.45;;;;;;;;;;5054057;28;20624;-82
2022/12/26 11:25:20;;;;;;;1.58;1.02;;;;;;;;;;5054359;28;20272;-82
2022/12/26 11:28:12;;;;;;;1.80;0.93;;;;;;;;;;5054223;28;20177;-82
2022/12/26 11:30:39;;;;;;;3.75;1.08;;;;;;;;;;5051204;28;20188;-82
2022/12/26 11:33:25;;;;;;;7.55;1.17;;;;;;;;;;5055644;28;20607;-81
2022/12/26 11:35:54;;;;;;;2.08;1.30;;;;;;;;;;5053983;28;20192;-82
2022/12/26 11:38:33;;;;;;;1.83;0.80;;;;;;;;;;5055430;28;20203;-81
2022/12/26 11:43:44;;;;;;;2.97;1.25;;;;;;;;;;5055024;28;20169;-82
2022/12/26 11:46:11;;;;;;;3.58;1.45;;;;;;;;;;5054948;28;20176;-82
2022/12/26 11:48:38;;;;;;;6.22;0.98;;;;;;;;;;5036859;28;20232;-82
2022/12/26 11:51:04;;;;;;;4.57;1.50;;;;;;;;;;5054836;28;20243;-82
2022/12/26 11:53:30;;;;;;;1.73;1.00;;;;;;;;;;5054539;28;20173;-81
2022/12/26 11:56:05;;;;;;;4.50;1.70;;;;;;;;;;5055124;28;20169;-81
2022/12/26 11:58:32;;;;;;;3.50;1.07;;;;;;;;;;5055092;28;20169;-80
2022/12/26 12:01:01;;;;;;;2.72;0.95;;;;;;;;;;5054260;28;20412;-81
2022/12/26 12:03:33;;;;;;;3.85;1.20;;;;;;;;;;5053767;28;20235;-79
2022/12/26 12:05:59;;;;;;;4.93;0.95;;;;;;;;;;5054047;28;20174;-80
2022/12/26 12:08:34;;;;;;;2.60;1.13;;;;;;;;;;5055218;28;20232;-80
2022/12/26 12:11:19;;;;;;;6.55;5.57;;;;;;;;;;5053985;28;20473;-81
2022/12/26 12:13:48;;;;;;;7.22;2.42;;;;;;;;;;5054397;28;20626;-82
2022/12/26 12:16:14;;;;;;;10.55;6.60;;;;;;;;;;5054928;28;20173;-82
2022/12/26 12:18:40;;;;;;;3.23;1.70;;;;;;;;;;5054908;28;20202;-82
2022/12/26 12:21:24;;;;;;;5.30;2.07;;;;;;;;;;5053272;28;20416;-82
2022/12/26 12:23:56;;;;;;;2.25;1.40;;;;;;;;;;5054620;28;20403;-82
2022/12/26 12:26:28;;;;;;;20.75;17.38;;;;;;;;;;5055051;28;20181;-82
2022/12/26 12:29:13;;;;;;;15.05;11.13;;;;;;;;;;5054841;28;20169;-81
2022/12/26 12:31:48;;;;;;;7.20;2.50;;;;;;;;;;5055021;28;20205;-81
2022/12/26 12:34:17;;;;;;;13.95;8.77;;;;;;;;;;5053729;28;20276;-80
2022/12/26 12:36:55;;;;;;;2.53;1.15;;;;;;;;;;5054980;28;20170;-81
2022/12/26 12:39:24;;;;;;;3.63;1.13;;;;;;;;;;5053848;28;20184;-81
2022/12/26 12:42:09;;;;;;;3.25;1.23;;;;;;;;;;5053665;28;20507;-81
2022/12/26 12:44:38;;;;;;;2.80;1.17;;;;;;;;;;5055195;28;20172;-81
2022/12/26 12:47:07;;;;;;;2.53;0.90;;;;;;;;;;5053516;28;20185;-81
2022/12/26 12:49:39;;;;;;;3.72;0.80;;;;;;;;;;5053239;28;20251;-80
2022/12/26 12:52:24;;;;;;;2.25;2.05;;;;;;;;;;5053753;28;20575;-81
2022/12/26 12:55:10;;;;;;;3.45;1.10;;;;;;;;;;5052913;28;20185;-82
2022/12/26 12:57:42;;;;;;;3.00;1.10;;;;;;;;;;5033612;28;20186;-81
2022/12/26 13:00:18;;;;;;;7.00;2.10;;;;;;;;;;5054876;28;20154;-81
2022/12/26 13:03:10;;;;;;;2.97;1.30;;;;;;;;;;5054741;28;20518;-82
2022/12/26 13:05:39;;;;;;;4.15;1.52;;;;;;;;;;5053480;28;20586;-81
2022/12/26 13:08:24;;;;;;;2.00;1.00;;;;;;;;;;5054395;28;20221;-82
2022/12/26 13:11:10;;;;;;;8.95;1.58;;;;;;;;;;5053141;28;20200;-82
2022/12/26 13:13:39;;;;;;;3.08;1.23;;;;;;;;;;5046233;28;20276;-82
2022/12/26 13:16:09;;;;;;;2.78;0.90;;;;;;;;;;5055054;28;20177;-81
2022/12/26 13:18:38;;;;;;;1.52;1.00;;;;;;;;;;5057197;28;20177;-82
2022/12/26 13:21:05;;;;;;;1.60;0.95;;;;;;;;;;5056950;28;20185;-81
2022/12/26 13:26:25;;;;;;;4.30;1.17;;;;;;;;;;5058257;28;20161;-81
2022/12/26 13:29:00;;;;;;;5.55;1.20;;;;;;;;;;5058239;28;20172;-82
2022/12/26 13:31:31;;;;;;;2.67;0.95;;;;;;;;;;5057710;28;20695;-81
2022/12/26 13:33:57;;;;;;;4.07;1.30;;;;;;;;;;5057499;28;20592;-81
2022/12/26 13:36:34;;;;;;;1.70;0.90;;;;;;;;;;5057222;28;20715;-82
2022/12/26 13:39:01;;;;;;;2.67;1.27;;;;;;;;;;5057237;28;20183;-83
2022/12/26 13:44:20;;;;;;;2.40;1.10;;;;;;;;;;5059338;28;20219;-81
2022/12/26 13:46:46;;;;;;;2.22;1.35;;;;;;;;;;5059222;28;20170;-82
2022/12/26 13:49:29;;;;;;;3.17;2.40;;;;;;;;;;5059070;28;20180;-82
2022/12/26 13:51:56;;;;;;;1.10;0.90;;;;;;;;;;5058117;28;20284;-82
2022/12/26 13:54:23;;;;;;;10.02;4.80;;;;;;;;;;5055307;28;20541;-81
2022/12/26 13:57:21;;;;;;;1.65;1.42;;;;;;;;;;5054215;28;20172;-81
2022/12/26 13:59:55;;;;;;;10.30;7.07;;;;;;;;;;5044048;28;20212;-81
2022/12/26 14:02:42;;;;;;;4.50;2.05;;;;;;;;;;5047384;28;20591;-81
2022/12/26 14:05:23;;;;;;;4.05;2.85;;;;;;;;;;5043790;28;20189;-81
2022/12/26 14:08:09;;;;;;;9.75;5.82;;;;;;;;;;5044213;28;20182;-81
2022/12/26 14:10:42;;;;;;;4.20;2.55;;;;;;;;;;5040077;28;20284;-81
2022/12/26 14:13:11;;;;;;;3.08;1.70;;;;;;;;;;5037632;28;20222;-80
2022/12/26 14:15:48;;;;;;;4.20;2.97;;;;;;;;;;5042134;28;20574;-81
2022/12/26 14:18:20;;;;;;;1.98;1.67;;;;;;;;;;5058108;28;20191;-81
2022/12/26 14:21:05;;;;;;;8.43;1.95;;;;;;;;;;5042575;28;20243;-83
2022/12/26 14:23:52;;;;;;;3.97;3.60;;;;;;;;;;5061767;28;20185;-81
2022/12/26 14:26:38;;;;;;;3.40;1.50;;;;;;;;;;5048579;28;20535;-80
2022/12/26 14:29:23;;;;;;;4.40;2.00;;;;;;;;;;5048632;28;20186;-81
2022/12/26 14:31:57;;;;;;;7.57;5.13;;;;;;;;;;5042642;28;20631;-81
2022/12/26 14:34:33;;;;;;;3.42;1.98;;;;;;;;;;5047980;28;20185;-80
2022/12/26 14:37:18;;;;;;;4.13;2.05;;;;;;;;;;5047888;28;20182;-81
2022/12/26 14:39:57;;;;;;;3.47;2.03;;;;;;;;;;5049019;28;20186;-83
2022/12/26 14:45:29;;;;;;;14.30;8.30;;;;;;;;;;5058306;28;20169;-80
2022/12/26 14:47:55;;;;;;;5.38;2.13;;;;;;;;;;5048917;28;20616;-80
2022/12/26 14:50:39;;;;;;;2.60;1.30;;;;;;;;;;5057832;28;20576;-80
2022/12/26 14:53:27;;;;;;;5.30;1.80;;;;;;;;;;5056685;28;20216;-80
2022/12/26 14:55:53;;;;;;;5.07;2.75;;;;;;;;;;5057934;28;20614;-79
2022/12/26 14:58:25;;;;;;;5.32;2.15;;;;;;;;;;5057449;28;20174;-80
2022/12/26 15:00:52;;;;;;;10.00;4.40;;;;;;;;;;5057650;28;20170;-81
2022/12/26 15:03:20;;;;;;;6.05;4.03;;;;;;;;;;5057641;28;20169;-81
2022/12/26 15:05:47;;;;;;;2.58;1.90;;;;;;;;;;5057586;28;20506;-80
2022/12/26 15:08:30;;;;;;;3.92;2.20;;;;;;;;;;5057174;28;20654;-80
2022/12/26 15:11:09;;;;;;;3.65;1.50;;;;;;;;;;5057077;28;20225;-81
2022/12/26 15:13:35;;;;;;;5.70;1.85;;;;;;;;;;5056211;28;20172;-80
2022/12/26 15:16:07;;;;;;;7.10;3.77;;;;;;;;;;5056205;28;20173;-81
2022/12/26 15:18:33;;;;;;;5.05;2.55;;;;;;;;;;5056979;28;20510;-80
2022/12/26 15:21:18;;;;;;;6.55;2.13;;;;;;;;;;5057361;28;20622;-81
2022/12/26 15:23:44;;;;;;;7.28;1.73;;;;;;;;;;5055833;28;20622;-81
2022/12/26 15:26:22;;;;;;;3.35;2.80;;;;;;;;;;5055847;28;20177;-80
2022/12/26 15:29:14;;;;;;;7.15;4.65;;;;;;;;;;5055843;28;20177;-81
2022/12/26 15:31:49;;;;;;;11.95;4.03;;;;;;;;;;5055884;28;20654;-80
2022/12/26 15:34:34;;;;;;;6.03;1.65;;;;;;;;;;5057601;28;20177;-81
2022/12/26 15:37:00;;;;;;;4.43;3.17;;;;;;;;;;5055128;28;20185;-80
2022/12/26 15:39:46;;;;;;;8.43;2.50;;;;;;;;;;5055645;28;20196;-80
2022/12/26 15:42:12;;;;;;;6.60;2.00;;;;;;;;;;5056785;28;20544;-81
2022/12/26 15:44:55;;;;;;;5.40;4.07;;;;;;;;;;5057340;28;20172;-81
2022/12/26 15:47:24;;;;;;;7.18;2.60;;;;;;;;;;5057002;28;20416;-80
2022/12/26 15:50:06;;;;;;;8.27;1.95;;;;;;;;;;5055644;28;20184;-81
2022/12/26 15:52:32;;;;;;;2.03;1.83;;;;;;;;;;5056892;28;20532;-79
2022/12/26 15:55:01;;;;;;;6.13;2.30;;;;;;;;;;5056892;28;20213;-79
2022/12/26 15:57:42;;;;;;;3.13;2.20;;;;;;;;;;5056764;28;20634;-80
2022/12/26 16:00:11;;;;;;;9.10;4.50;;;;;;;;;;5055352;28;20192;-80
2022/12/26 16:02:43;;;;;;;9.70;3.13;;;;;;;;;;5055251;28;20273;-79
2022/12/26 16:05:18;;;;;;;5.15;2.33;;;;;;;;;;5056766;28;20161;-79
2022/12/26 16:07:53;;;;;;;7.15;2.58;;;;;;;;;;5056615;28;20180;-81
2022/12/26 16:10:25;;;;;;;6.68;3.05;;;;;;;;;;5051540;28;20192;-80
2022/12/26 16:13:00;;;;;;;6.75;3.70;;;;;;;;;;5056752;28;20209;-81
2022/12/26 16:15:26;;;;;;;16.20;7.85;;;;;;;;;;5056481;28;20200;-80
2022/12/26 16:17:52;;;;;;;8.30;5.53;;;;;;;;;;5054810;28;20296;-80
2022/12/26 16:22:42;;;;;;;20.88;9.18;;;;;;;;;;5054437;28;20197;-81
2022/12/26 16:23:12;;;;;;;22.70;12.60;;;;;;;;;;5055368;28;20213;-80
2022/12/26 16:25:38;;;;;;;8.50;5.15;;;;;;;;;;5056320;28;20172;-80
2022/12/26 16:28:05;;;;;;;7.30;4.80;;;;;;;;;;5055598;28;20172;-80
2022/12/26 16:30:35;;;;;;;9.32;7.60;;;;;;;;;;5056027;28;20184;-80
2022/12/26 16:33:01;;;;;;;5.43;3.67;;;;;;;;;;5055889;28;20210;-79
2022/12/26 16:35:29;;;;;;;4.93;4.45;;;;;;;;;;5056041;28;20661;-81
2022/12/26 16:37:56;;;;;;;9.73;6.10;;;;;;;;;;5055461;28;20495;-81
2022/12/26 16:40:32;;;;;;;9.38;6.60;;;;;;;;;;5055472;28;20173;-81
2022/12/26 16:42:58;;;;;;;6.82;5.45;;;;;;;;;;5053615;28;20185;-81
2022/12/26 16:45:25;;;;;;;8.80;4.70;;;;;;;;;;5055850;28;20182;-80
2022/12/26 16:47:52;;;;;;;7.85;4.80;;;;;;;;;;5055650;28;20180;-80
2022/12/26 16:50:21;;;;;;;8.57;4.97;;;;;;;;;;5038941;28;20208;-79
2022/12/26 16:52:48;;;;;;;11.43;4.97;;;;;;;;;;5058824;28;20610;-79
2022/12/26 16:55:25;;;;;;;7.38;4.45;;;;;;;;;;5060265;28;20211;-79
2022/12/26 16:57:55;;;;;;;9.23;5.25;;;;;;;;;;5058483;28;20559;-83
2022/12/26 17:00:21;;;;;;;15.20;5.25;;;;;;;;;;5059639;28;20511;-80
2022/12/26 17:02:48;;;;;;;7.95;4.40;;;;;;;;;;5059544;28;20825;-80
2022/12/26 17:05:36;;;;;;;8.20;4.55;;;;;;;;;;5059884;28;20165;-80
2022/12/26 17:08:03;;;;;;;10.50;5.75;;;;;;;;;;5060006;28;20932;-80
2022/12/26 17:10:34;;;;;;;10.68;5.90;;;;;;;;;;5059396;28;20520;-81
2022/12/26 17:13:02;;;;;;;8.50;4.57;;;;;;;;;;5058876;28;20714;-80
2022/12/26 17:15:30;;;;;;;7.07;4.03;;;;;;;;;;5059296;28;20181;-79
2022/12/26 17:17:57;;;;;;;6.47;4.00;;;;;;;;;;5059237;28;20179;-82